Time;durP1;ratioP1;P1;durP2;ratioP2;P2;SDS_P1;SDS_P2;PMS_P1;PMS_P2;Temp;Humidity;BMP_temperature;BMP_pressure;BME280_temperature;BME280_humidity;BME280_pressure;Samples;Min_cycle;Max_cycle;Signal;HPM_P1;HPM_P2
2022/11/16 00:01:50;;;;;;;9.15;7.07;;;11.10;99.90;;;;;;4955163;29;20044;-82
2022/11/16 00:04:15;;;;;;;8.77;6.93;;;11.10;99.90;;;;;;4954808;29;20074;-82
2022/11/16 00:06:41;;;;;;;8.35;6.85;;;11.10;99.90;;;;;;4923286;29;20484;-82
2022/11/16 00:09:22;;;;;;;8.70;7.22;;;11.10;99.90;;;;;;4922398;29;20051;-82
2022/11/16 00:11:53;;;;;;;9.48;7.75;;;11.10;99.90;;;;;;4954300;29;20106;-82
2022/11/16 00:14:20;;;;;;;9.30;6.93;;;11.10;99.90;;;;;;4932281;29;20117;-82
2022/11/16 00:16:46;;;;;;;10.13;7.15;;;11.10;99.90;;;;;;4955793;29;20434;-82
2022/11/16 00:19:12;;;;;;;9.48;7.43;;;11.10;99.90;;;;;;4924466;29;20122;-82
2022/11/16 00:21:38;;;;;;;8.15;6.13;;;11.10;99.90;;;;;;4923420;29;20802;-82
2022/11/16 00:24:04;;;;;;;8.10;6.88;;;11.10;99.90;;;;;;4941044;29;20047;-82
2022/11/16 00:26:31;;;;;;;11.13;8.07;;;11.10;99.90;;;;;;4924795;29;20044;-82
2022/11/16 00:28:57;;;;;;;8.85;6.47;;;11.40;99.90;;;;;;4940063;29;20049;-82
2022/11/16 00:31:23;;;;;;;11.00;8.02;;;11.00;99.90;;;;;;4955228;28;20058;-81
2022/11/16 00:33:49;;;;;;;9.85;7.57;;;11.10;99.90;;;;;;4939897;29;20042;-81
2022/11/16 00:36:16;;;;;;;10.43;7.50;;;11.00;99.90;;;;;;4928812;29;20040;-83
2022/11/16 00:38:42;;;;;;;11.25;7.53;;;11.10;99.90;;;;;;4939320;29;20066;-83
2022/11/16 00:41:08;;;;;;;10.02;8.00;;;11.00;99.90;;;;;;4954611;29;20101;-84
2022/11/16 00:43:35;;;;;;;9.00;6.60;;;11.00;99.90;;;;;;4930811;29;20051;-83
2022/11/16 00:46:02;;;;;;;12.02;7.20;;;11.00;99.90;;;;;;4955589;29;20035;-83
2022/11/16 00:48:28;;;;;;;9.70;7.78;;;11.00;99.90;;;;;;4922597;29;20526;-83
2022/11/16 00:50:54;;;;;;;10.60;8.13;;;11.00;99.90;;;;;;4939205;29;20079;-83
2022/11/16 00:53:20;;;;;;;12.90;8.55;;;11.00;99.90;;;;;;4939129;29;20040;-84
2022/11/16 00:55:46;;;;;;;8.35;6.85;;;11.00;99.90;;;;;;4938847;29;20043;-83
2022/11/16 00:58:13;;;;;;;10.07;8.25;;;11.00;99.90;;;;;;4922825;29;20039;-83
2022/11/16 01:00:40;;;;;;;11.80;8.88;;;11.00;99.90;;;;;;4939585;29;20044;-84
2022/11/16 01:03:05;;;;;;;9.18;7.93;;;11.00;99.90;;;;;;4952916;29;20043;-83
2022/11/16 01:05:31;;;;;;;9.93;8.55;;;11.00;99.90;;;;;;4917067;29;20102;-82
2022/11/16 01:07:57;;;;;;;11.82;8.23;;;11.00;99.90;;;;;;4931450;29;20106;-83
2022/11/16 01:10:24;;;;;;;9.70;8.65;;;11.00;99.90;;;;;;4942956;29;20456;-83
2022/11/16 01:12:51;;;;;;;10.05;8.73;;;11.00;99.90;;;;;;4920316;29;20383;-83
2022/11/16 01:15:19;;;;;;;10.85;8.75;;;11.00;99.90;;;;;;4934778;29;20485;-83
2022/11/16 01:17:44;;;;;;;11.50;9.02;;;11.00;99.90;;;;;;4938410;29;20075;-83
2022/11/16 01:20:16;;;;;;;12.60;8.27;;;11.00;99.90;;;;;;4922003;29;20522;-83
2022/11/16 01:22:42;;;;;;;8.57;7.60;;;11.00;99.90;;;;;;4952599;29;20047;-84
2022/11/16 01:25:09;;;;;;;10.10;8.80;;;11.10;99.90;;;;;;4920443;29;20118;-84
2022/11/16 01:27:36;;;;;;;11.07;8.45;;;11.00;99.90;;;;;;4952645;29;20053;-84
2022/11/16 01:30:01;;;;;;;12.00;8.95;;;11.20;99.90;;;;;;4946621;29;20043;-84
2022/11/16 01:32:27;;;;;;;13.45;9.32;;;11.10;99.90;;;;;;4937210;29;20062;-84
2022/11/16 01:34:53;;;;;;;11.32;8.60;;;11.10;99.90;;;;;;4921454;29;20043;-84
2022/11/16 01:37:19;;;;;;;14.23;9.27;;;11.00;99.90;;;;;;4921732;29;20043;-83
2022/11/16 01:39:44;;;;;;;15.68;9.35;;;11.10;99.90;;;;;;4920457;29;20042;-84
2022/11/16 01:42:17;;;;;;;13.25;10.13;;;11.10;99.90;;;;;;4937764;29;20055;-84
2022/11/16 01:44:43;;;;;;;11.18;9.65;;;11.10;99.90;;;;;;4938382;29;20050;-84
2022/11/16 01:47:11;;;;;;;14.85;10.05;;;11.10;99.90;;;;;;4938884;29;20039;-85
2022/11/16 01:49:41;;;;;;;12.10;9.07;;;11.10;99.90;;;;;;4939054;29;20070;-84
2022/11/16 01:52:35;;;;;;;14.73;11.82;;;11.10;99.90;;;;;;4938319;29;20062;-84
2022/11/16 01:55:01;;;;;;;14.60;11.45;;;11.10;99.90;;;;;;4961158;29;20091;-84
2022/11/16 01:57:38;;;;;;;15.20;11.35;;;11.10;99.90;;;;;;4957329;29;20067;-84
2022/11/16 02:00:06;;;;;;;15.38;11.80;;;11.10;99.90;;;;;;4940175;29;20122;-84
2022/11/16 02:02:32;;;;;;;11.48;9.75;;;11.10;99.90;;;;;;4922943;29;20047;-84
2022/11/16 02:05:00;;;;;;;14.32;11.75;;;11.10;99.90;;;;;;4937180;29;20078;-84
2022/11/16 02:09:52;;;;;;;15.50;11.05;;;11.10;99.90;;;;;;4936699;29;20419;-85
2022/11/16 02:10:35;;;;;;;14.30;11.73;;;11.10;99.90;;;;;;4951827;29;20074;-84
2022/11/16 02:13:11;;;;;;;12.48;10.00;;;11.20;99.90;;;;;;4936758;29;20051;-84
2022/11/16 02:15:56;;;;;;;13.40;11.35;;;11.20;99.90;;;;;;4929960;29;20043;-84
2022/11/16 02:18:34;;;;;;;14.63;11.35;;;11.20;99.90;;;;;;4952354;29;20102;-84
2022/11/16 02:21:15;;;;;;;11.82;9.75;;;11.20;99.90;;;;;;4936331;29;20043;-84
2022/11/16 02:24:06;;;;;;;17.00;11.63;;;11.20;99.90;;;;;;4935933;29;20496;-84
2022/11/16 02:26:43;;;;;;;14.57;11.75;;;11.50;99.90;;;;;;4936146;29;20134;-84
2022/11/16 02:29:27;;;;;;;14.20;12.10;;;11.20;99.90;;;;;;4952148;29;20078;-84
2022/11/16 02:32:21;;;;;;;14.70;10.65;;;11.20;99.90;;;;;;4951622;28;20074;-84
2022/11/16 02:34:53;;;;;;;15.48;12.80;;;11.20;99.90;;;;;;4936202;29;20039;-84
2022/11/16 02:37:21;;;;;;;14.25;11.93;;;11.20;99.90;;;;;;4935821;29;20484;-84
2022/11/16 02:39:52;;;;;;;14.40;11.32;;;11.20;99.90;;;;;;4951443;29;20047;-84
2022/11/16 02:42:27;;;;;;;14.90;11.63;;;11.20;99.90;;;;;;4935990;29;20051;-84
2022/11/16 02:44:54;;;;;;;13.20;11.80;;;11.20;99.90;;;;;;4951483;28;20042;-83
2022/11/16 02:47:25;;;;;;;14.35;12.05;;;11.20;99.90;;;;;;4939373;29;20086;-83
2022/11/16 02:49:56;;;;;;;13.73;10.63;;;11.20;99.90;;;;;;4940705;29;20511;-84
2022/11/16 02:52:24;;;;;;;15.35;11.43;;;11.60;99.90;;;;;;4939600;29;20052;-83
2022/11/16 02:54:50;;;;;;;14.63;10.32;;;11.20;99.90;;;;;;4925514;29;20043;-83
2022/11/16 02:57:22;;;;;;;16.38;12.50;;;11.20;99.90;;;;;;4925752;29;20321;-83
2022/11/16 02:59:53;;;;;;;12.93;9.95;;;11.20;99.90;;;;;;4932823;29;20095;-82
2022/11/16 03:02:47;;;;;;;14.43;11.88;;;11.20;99.90;;;;;;4943176;29;20051;-83
2022/11/16 03:05:42;;;;;;;16.65;12.05;;;11.20;99.90;;;;;;4900538;29;1273581;-83
2022/11/16 03:08:17;;;;;;;13.32;11.38;;;11.20;99.90;;;;;;4947412;29;20106;-81
2022/11/16 03:13:35;;;;;;;13.02;10.55;;;11.20;99.90;;;;;;4966064;28;20047;-83
2022/11/16 03:16:07;;;;;;;13.15;10.95;;;11.20;99.90;;;;;;4948604;29;20143;-83
2022/11/16 03:18:33;;;;;;;14.38;10.95;;;11.20;99.90;;;;;;4959586;29;20042;-83
2022/11/16 03:21:24;;;;;;;12.85;10.20;;;11.20;99.90;;;;;;4931838;29;20129;-83
2022/11/16 03:23:50;;;;;;;14.48;10.10;;;11.20;99.90;;;;;;4960347;29;20058;-84
2022/11/16 03:26:21;;;;;;;13.63;11.70;;;11.20;99.90;;;;;;4960876;29;20074;-83
2022/11/16 03:28:56;;;;;;;12.20;9.90;;;11.20;99.90;;;;;;4960285;29;20530;-83
2022/11/16 03:31:38;;;;;;;12.80;10.02;;;11.20;99.90;;;;;;4946205;29;20078;-83
2022/11/16 03:34:11;;;;;;;13.95;11.95;;;11.20;99.90;;;;;;4943679;29;20046;-84
2022/11/16 03:36:40;;;;;;;15.18;11.65;;;11.20;99.90;;;;;;4957110;29;20047;-83
2022/11/16 03:39:11;;;;;;;13.05;11.02;;;11.20;99.90;;;;;;4948255;29;20106;-84
2022/11/16 03:41:41;;;;;;;12.32;11.02;;;11.20;99.90;;;;;;4955456;29;20440;-84
2022/11/16 03:44:09;;;;;;;13.90;12.13;;;11.20;99.90;;;;;;4938770;29;20058;-83
2022/11/16 03:46:35;;;;;;;14.35;11.80;;;11.20;99.90;;;;;;4954417;29;20059;-84
2022/11/16 03:49:01;;;;;;;13.63;11.93;;;11.20;99.90;;;;;;4926556;29;20043;-84
2022/11/16 03:51:27;;;;;;;12.23;10.88;;;11.20;99.90;;;;;;4929030;29;20137;-83
2022/11/16 03:53:53;;;;;;;12.27;10.93;;;11.30;99.90;;;;;;4926206;29;20070;-83
2022/11/16 03:56:19;;;;;;;13.07;11.63;;;11.20;99.90;;;;;;4923316;29;20040;-84
2022/11/16 03:58:45;;;;;;;13.93;11.60;;;11.30;99.90;;;;;;4941497;29;20130;-83
2022/11/16 04:01:11;;;;;;;15.00;11.07;;;11.20;99.90;;;;;;4926209;29;20071;-83
2022/11/16 04:03:37;;;;;;;16.25;12.00;;;11.20;99.90;;;;;;4941061;29;20091;-83
2022/11/16 04:25:53;;;;;;;14.93;11.63;;;11.20;99.90;;;;;;4960003;29;20061;-82
2022/11/16 04:28:24;;;;;;;13.05;11.63;;;11.20;99.90;;;;;;4923960;29;20125;-83
2022/11/16 04:39:10;;;;;;;13.48;12.05;;;11.20;99.90;;;;;;4941397;29;20102;-82
2022/11/16 04:44:20;;;;;;;13.05;11.48;;;11.20;99.90;;;;;;4954796;29;20134;-82
2022/11/16 04:47:05;;;;;;;13.70;12.00;;;11.20;99.90;;;;;;4938517;29;20177;-82
2022/11/16 04:49:31;;;;;;;13.95;11.40;;;11.20;99.90;;;;;;4941099;29;20046;-82
2022/11/16 04:51:57;;;;;;;11.98;10.35;;;11.30;99.90;;;;;;4922679;29;20039;-83
2022/11/16 04:54:23;;;;;;;14.10;12.30;;;11.30;99.90;;;;;;4938478;29;20529;-83
2022/11/16 04:56:49;;;;;;;13.75;12.32;;;11.20;99.90;;;;;;4938882;29;20043;-83
2022/11/16 04:59:15;;;;;;;14.13;12.65;;;11.20;99.90;;;;;;4939033;29;20458;-83
2022/11/16 05:04:25;;;;;;;13.27;11.90;;;11.20;99.90;;;;;;4939428;29;20062;-83
2022/11/16 05:06:52;;;;;;;14.23;12.73;;;11.20;99.90;;;;;;4902190;29;20041;-83
2022/11/16 05:09:18;;;;;;;14.20;12.70;;;11.20;99.90;;;;;;4899426;29;20048;-83
2022/11/16 05:11:43;;;;;;;14.88;13.05;;;11.20;99.90;;;;;;4915837;29;20401;-83
2022/11/16 05:14:10;;;;;;;14.95;13.07;;;11.20;99.90;;;;;;4881278;29;20044;-83
2022/11/16 05:16:36;;;;;;;15.95;14.27;;;11.30;99.90;;;;;;4912914;29;20051;-83
2022/11/16 05:21:47;;;;;;;14.52;11.98;;;11.30;99.90;;;;;;4928556;29;20054;-84
2022/11/16 05:27:01;;;;;;;14.93;13.35;;;11.30;99.90;;;;;;4917159;29;20043;-82
2022/11/16 05:29:27;;;;;;;17.25;13.55;;;11.30;99.90;;;;;;4912736;29;20082;-82
2022/11/16 05:31:53;;;;;;;16.45;14.70;;;11.30;99.90;;;;;;4911482;29;20523;-82
2022/11/16 05:34:19;;;;;;;14.25;12.75;;;11.30;99.90;;;;;;4880562;29;20070;-82
2022/11/16 05:36:45;;;;;;;15.63;13.25;;;11.30;99.90;;;;;;4912152;29;20122;-82
2022/11/16 05:39:11;;;;;;;14.38;12.23;;;11.30;99.90;;;;;;4915873;29;20421;-81
2022/11/16 05:41:37;;;;;;;13.85;12.45;;;11.30;99.90;;;;;;4914909;29;20478;-83
2022/11/16 05:44:03;;;;;;;16.77;14.05;;;11.30;99.90;;;;;;4882029;29;20058;-83
2022/11/16 05:46:29;;;;;;;14.68;13.05;;;11.30;99.90;;;;;;4898447;29;20122;-83
2022/11/16 05:48:55;;;;;;;15.77;12.40;;;11.30;99.90;;;;;;4898697;29;20451;-83
2022/11/16 05:51:20;;;;;;;14.60;13.10;;;11.20;99.90;;;;;;4896955;29;20047;-83
2022/11/16 05:53:48;;;;;;;14.88;13.38;;;11.30;99.90;;;;;;4915251;29;20488;-84
2022/11/16 05:56:14;;;;;;;16.35;13.20;;;11.30;99.90;;;;;;4905268;29;20051;-83
2022/11/16 05:58:41;;;;;;;15.35;13.35;;;11.30;99.90;;;;;;4911853;29;20047;-83
2022/11/16 06:01:07;;;;;;;15.20;12.75;;;11.50;99.90;;;;;;4928869;29;20147;-84
2022/11/16 06:03:35;;;;;;;15.23;12.45;;;11.20;99.90;;;;;;4910709;29;20480;-83
2022/11/16 06:06:01;;;;;;;14.05;12.55;;;11.30;99.90;;;;;;4931935;29;20135;-83
2022/11/16 06:08:28;;;;;;;14.55;11.95;;;11.30;99.90;;;;;;4925794;29;20051;-84
2022/11/16 06:10:54;;;;;;;14.68;12.60;;;11.30;99.90;;;;;;4939137;29;20142;-84
2022/11/16 06:13:19;;;;;;;15.20;12.85;;;11.30;99.90;;;;;;4928809;29;20403;-84
2022/11/16 06:15:45;;;;;;;14.43;12.10;;;11.30;99.90;;;;;;4923477;29;20039;-84
2022/11/16 06:18:11;;;;;;;14.07;12.25;;;11.20;99.90;;;;;;4923085;29;20031;-85
2022/11/16 06:20:39;;;;;;;15.70;13.05;;;11.20;99.90;;;;;;4936890;29;20054;-83
2022/11/16 06:23:05;;;;;;;13.20;11.77;;;11.20;99.90;;;;;;4937170;29;20046;-84
2022/11/16 06:25:31;;;;;;;13.35;11.70;;;11.20;99.90;;;;;;4935334;29;20046;-82
2022/11/16 06:27:57;;;;;;;14.20;11.55;;;11.20;99.90;;;;;;4935314;29;20039;-82
2022/11/16 06:30:23;;;;;;;14.50;12.73;;;11.20;99.90;;;;;;4935903;29;20069;-82
2022/11/16 06:32:49;;;;;;;14.52;12.05;;;11.20;99.90;;;;;;4919674;29;20473;-81
2022/11/16 06:35:15;;;;;;;13.23;11.93;;;11.20;99.90;;;;;;4912343;29;20051;-82
2022/11/16 06:37:41;;;;;;;13.40;11.43;;;11.20;99.90;;;;;;4919939;29;20050;-82
2022/11/16 06:40:08;;;;;;;12.98;11.45;;;11.20;99.90;;;;;;4919977;29;20039;-82
2022/11/16 06:42:33;;;;;;;21.90;12.38;;;11.20;99.90;;;;;;4943312;29;20377;-82
2022/11/16 06:44:59;;;;;;;14.30;11.20;;;11.10;99.90;;;;;;4935619;29;20043;-82
2022/11/16 06:47:28;;;;;;;11.90;10.50;;;11.10;99.90;;;;;;4935385;29;20051;-82
2022/11/16 06:49:54;;;;;;;12.30;9.00;;;11.10;99.90;;;;;;4935715;29;20051;-82
2022/11/16 06:52:20;;;;;;;13.15;9.30;;;11.10;99.90;;;;;;4935104;29;20054;-81
2022/11/16 06:54:45;;;;;;;14.77;8.98;;;11.10;99.90;;;;;;4935403;29;20035;-82
2022/11/16 06:57:11;;;;;;;10.65;8.65;;;11.10;99.90;;;;;;4919010;29;20079;-83
2022/11/16 06:59:37;;;;;;;9.68;7.65;;;11.20;99.90;;;;;;4935180;29;20050;-84
2022/11/16 07:02:02;;;;;;;13.05;8.48;;;11.00;99.90;;;;;;4935474;29;20436;-84
2022/11/16 07:04:30;;;;;;;10.00;7.32;;;11.00;99.90;;;;;;4934985;29;20066;-83
2022/11/16 07:06:55;;;;;;;11.00;7.75;;;11.00;99.90;;;;;;4911126;29;20047;-83
2022/11/16 07:09:21;;;;;;;10.30;7.63;;;11.40;99.90;;;;;;4895373;29;20628;-83
2022/11/16 07:11:47;;;;;;;9.02;7.38;;;11.00;99.90;;;;;;4895055;29;20051;-83
2022/11/16 07:14:13;;;;;;;11.63;8.15;;;11.00;99.90;;;;;;4910239;29;20995;-83
2022/11/16 07:16:38;;;;;;;10.55;8.20;;;11.00;99.90;;;;;;4912969;29;20503;-83
2022/11/16 07:19:04;;;;;;;9.38;8.45;;;11.00;99.90;;;;;;4911922;29;20066;-83
2022/11/16 07:21:30;;;;;;;11.20;8.77;;;11.00;99.90;;;;;;4911054;29;20530;-83
2022/11/16 07:23:56;;;;;;;11.10;8.65;;;11.00;99.90;;;;;;4909887;29;20087;-84
2022/11/16 07:26:22;;;;;;;10.57;9.05;;;11.00;99.90;;;;;;4924905;29;20040;-84
2022/11/16 07:28:48;;;;;;;12.77;9.98;;;10.90;99.90;;;;;;4923260;29;20146;-83
2022/11/16 07:31:14;;;;;;;11.75;9.90;;;11.00;99.90;;;;;;4894950;29;20086;-83
2022/11/16 07:33:40;;;;;;;11.27;9.45;;;11.00;99.90;;;;;;4912050;29;20062;-83
2022/11/16 07:36:12;;;;;;;11.65;9.82;;;11.00;99.90;;;;;;4898944;29;20054;-83
2022/11/16 07:38:38;;;;;;;13.10;9.90;;;11.00;99.90;;;;;;4917571;29;20039;-83
2022/11/16 07:41:23;;;;;;;10.85;9.48;;;11.00;99.90;;;;;;4938055;29;20047;-83
2022/11/16 07:43:49;;;;;;;13.43;10.10;;;11.00;99.90;;;;;;4902360;29;20125;-83
2022/11/16 07:46:18;;;;;;;14.57;9.68;;;11.00;99.90;;;;;;4916986;29;20131;-84
2022/11/16 07:48:44;;;;;;;14.73;10.95;;;11.10;99.90;;;;;;4915847;29;20453;-83
2022/11/16 07:51:12;;;;;;;12.38;11.07;;;11.00;99.90;;;;;;4902223;29;20051;-83
2022/11/16 07:53:38;;;;;;;12.75;11.32;;;11.00;99.90;;;;;;4930601;29;20154;-82
2022/11/16 07:56:05;;;;;;;11.65;10.38;;;11.00;99.90;;;;;;4913381;29;20071;-82
2022/11/16 07:58:34;;;;;;;13.10;11.13;;;11.00;99.90;;;;;;4914142;29;20043;-82
2022/11/16 08:01:10;;;;;;;14.75;11.60;;;11.00;99.90;;;;;;4899115;29;20077;-82
2022/11/16 08:03:36;;;;;;;16.25;11.30;;;11.00;99.90;;;;;;4913951;29;20078;-82
2022/11/16 08:06:05;;;;;;;13.48;10.85;;;11.00;99.90;;;;;;4932533;29;20176;-82
2022/11/16 08:08:31;;;;;;;12.15;10.23;;;11.00;99.90;;;;;;4940151;29;20050;-82
2022/11/16 08:11:06;;;;;;;14.32;11.80;;;11.00;99.90;;;;;;4955677;29;20377;-82
2022/11/16 08:13:33;;;;;;;13.55;11.35;;;11.00;99.90;;;;;;4931860;29;20043;-83
2022/11/16 08:16:01;;;;;;;14.25;11.38;;;11.00;99.90;;;;;;4939402;29;20531;-83
2022/11/16 08:18:30;;;;;;;12.05;10.07;;;11.00;99.90;;;;;;4938199;29;20079;-82
2022/11/16 08:21:00;;;;;;;14.88;10.63;;;11.00;99.90;;;;;;4955837;29;20050;-82
2022/11/16 08:23:27;;;;;;;13.88;10.98;;;11.00;99.90;;;;;;4954499;29;20051;-82
2022/11/16 08:26:01;;;;;;;12.50;10.57;;;11.10;99.90;;;;;;4939210;29;20078;-82
2022/11/16 08:28:28;;;;;;;15.43;10.15;;;11.10;99.90;;;;;;4955135;29;20054;-82
2022/11/16 08:30:54;;;;;;;11.95;9.13;;;11.00;99.90;;;;;;4922881;29;20881;-82
2022/11/16 08:33:20;;;;;;;12.43;9.43;;;11.20;99.90;;;;;;4955775;29;20074;-82
2022/11/16 08:35:47;;;;;;;14.82;10.60;;;11.20;99.90;;;;;;4923446;29;20085;-82
2022/11/16 08:38:13;;;;;;;16.27;10.20;;;11.30;99.90;;;;;;4939010;29;20039;-82
2022/11/16 08:40:40;;;;;;;12.23;9.32;;;11.20;99.90;;;;;;4938965;29;20102;-82
2022/11/16 08:43:05;;;;;;;12.10;9.88;;;11.20;99.90;;;;;;4937573;29;20039;-82
2022/11/16 08:45:32;;;;;;;14.40;9.02;;;11.20;99.90;;;;;;4938928;29;20042;-82
2022/11/16 08:47:58;;;;;;;14.70;9.70;;;11.30;99.90;;;;;;4954479;29;20043;-82
2022/11/16 08:50:24;;;;;;;12.50;9.60;;;11.30;99.90;;;;;;4929443;29;20051;-83
2022/11/16 08:52:50;;;;;;;14.57;10.50;;;11.30;99.90;;;;;;4938394;29;20234;-82
2022/11/16 08:55:17;;;;;;;16.77;11.38;;;11.30;99.90;;;;;;4938203;29;20126;-82
2022/11/16 08:57:43;;;;;;;14.45;10.20;;;11.40;99.90;;;;;;4937532;29;20043;-82
2022/11/16 09:00:10;;;;;;;15.43;11.35;;;11.40;99.90;;;;;;4922383;29;20035;-82
2022/11/16 09:02:36;;;;;;;15.43;11.82;;;11.50;99.90;;;;;;4938530;29;20055;-82
2022/11/16 09:05:03;;;;;;;18.95;12.82;;;11.60;99.90;;;;;;4953961;29;20149;-82
2022/11/16 09:07:29;;;;;;;24.48;13.38;;;11.70;99.90;;;;;;4953670;29;20066;-82
2022/11/16 09:09:54;;;;;;;21.75;14.07;;;11.90;99.90;;;;;;4922259;29;20057;-82
2022/11/16 09:12:20;;;;;;;20.50;13.40;;;11.80;99.90;;;;;;4937881;29;20043;-82
2022/11/16 09:14:46;;;;;;;19.33;12.88;;;11.80;99.90;;;;;;4937521;29;20035;-82
2022/11/16 09:17:11;;;;;;;19.55;12.75;;;11.90;99.90;;;;;;4922087;29;20404;-82
2022/11/16 09:19:37;;;;;;;17.70;12.32;;;12.00;99.90;;;;;;4921840;29;20062;-81
2022/11/16 09:22:03;;;;;;;17.92;12.02;;;12.10;99.90;;;;;;4954598;29;20043;-83
2022/11/16 09:24:29;;;;;;;17.55;10.98;;;12.20;99.90;;;;;;4953292;29;20499;-82
2022/11/16 09:27:00;;;;;;;17.95;12.05;;;12.10;99.90;;;;;;4952774;29;20083;-83
2022/11/16 09:29:29;;;;;;;14.73;11.07;;;12.20;99.90;;;;;;4922127;29;20053;-82
2022/11/16 09:31:57;;;;;;;17.58;10.52;;;12.10;99.90;;;;;;4937502;29;20550;-81
2022/11/16 09:34:23;;;;;;;14.60;10.38;;;11.90;99.90;;;;;;4953893;29;20073;-81
2022/11/16 09:36:49;;;;;;;18.20;10.63;;;12.00;99.90;;;;;;4938735;29;20240;-81
2022/11/16 09:39:14;;;;;;;18.88;10.40;;;12.10;99.90;;;;;;4938183;29;20132;-82
2022/11/16 09:41:57;;;;;;;18.85;9.77;;;12.20;99.90;;;;;;4937364;29;20047;-81
2022/11/16 09:44:36;;;;;;;16.52;9.07;;;12.20;99.90;;;;;;4945756;29;20061;-82
2022/11/16 09:47:05;;;;;;;11.00;8.40;;;12.10;99.90;;;;;;4928209;29;20047;-81
2022/11/16 09:49:38;;;;;;;11.45;7.75;;;11.90;99.90;;;;;;4953041;29;20077;-81
2022/11/16 09:52:22;;;;;;;16.90;8.25;;;12.00;99.90;;;;;;4952846;29;20047;-81
2022/11/16 09:54:49;;;;;;;14.25;7.40;;;12.10;99.90;;;;;;4936944;29;20043;-82
2022/11/16 09:57:19;;;;;;;12.75;8.25;;;12.10;99.90;;;;;;4937710;29;20075;-81
2022/11/16 09:59:55;;;;;;;10.85;7.35;;;12.10;99.90;;;;;;4928309;29;20035;-81
2022/11/16 10:02:35;;;;;;;12.05;7.15;;;12.10;99.90;;;;;;4953092;29;20126;-81
2022/11/16 10:05:32;;;;;;;16.80;7.93;;;12.00;99.90;;;;;;4938995;29;20063;-81
2022/11/16 10:08:09;;;;;;;13.55;6.80;;;12.30;99.90;;;;;;4940580;29;20392;-81
2022/11/16 10:11:16;;;;;;;10.85;6.43;;;12.60;99.90;;;;;;4939874;29;20051;-81
2022/11/16 10:14:04;;;;;;;9.70;5.63;;;13.10;99.90;;;;;;4965179;28;20095;-81
2022/11/16 10:16:39;;;;;;;8.63;5.07;;;13.10;99.90;;;;;;4968686;28;20146;-82
2022/11/16 10:19:13;;;;;;;12.60;5.53;;;12.90;99.90;;;;;;4938332;29;20071;-81
2022/11/16 10:22:06;;;;;;;8.40;4.90;;;12.50;99.90;;;;;;4936364;29;20043;-82
2022/11/16 10:24:49;;;;;;;11.90;5.60;;;12.30;99.90;;;;;;4944896;29;20404;-81
2022/11/16 10:27:18;;;;;;;9.52;4.70;;;12.10;99.90;;;;;;4953907;29;20408;-81
2022/11/16 10:30:10;;;;;;;10.75;4.65;;;12.10;99.90;;;;;;4953690;29;20091;-81
2022/11/16 10:32:43;;;;;;;12.38;5.55;;;12.00;99.90;;;;;;4947057;29;20059;-81
2022/11/16 10:35:16;;;;;;;14.27;4.57;;;11.90;99.90;;;;;;4925811;29;20050;-81
2022/11/16 10:37:49;;;;;;;7.68;3.70;;;12.10;99.90;;;;;;4936111;29;20074;-82
2022/11/16 10:40:20;;;;;;;7.45;3.50;;;12.20;99.90;;;;;;4936630;29;20047;-81
2022/11/16 10:43:08;;;;;;;9.20;3.70;;;12.20;99.90;;;;;;4943932;29;20047;-81
2022/11/16 10:45:44;;;;;;;11.32;3.40;;;12.10;99.90;;;;;;4952750;29;20046;-81
2022/11/16 10:48:48;;;;;;;6.45;2.90;;;12.10;99.90;;;;;;4952961;29;20133;-81
2022/11/16 10:51:14;;;;;;;10.35;3.08;;;12.00;99.90;;;;;;4944107;29;20563;-81
2022/11/16 10:53:42;;;;;;;8.45;3.10;;;11.90;99.90;;;;;;4921002;29;20047;-82
2022/11/16 10:56:40;;;;;;;12.02;3.67;;;11.80;99.90;;;;;;4921715;29;20539;-81
2022/11/16 10:59:07;;;;;;;14.38;3.55;;;11.80;99.90;;;;;;4926734;29;20673;-82
2022/11/16 11:01:36;;;;;;;10.10;2.78;;;11.70;99.90;;;;;;4935966;29;20046;-81
2022/11/16 11:04:19;;;;;;;11.18;3.33;;;11.80;99.90;;;;;;4936354;29;20079;-82
2022/11/16 11:06:46;;;;;;;13.00;3.20;;;11.90;99.90;;;;;;4929639;29;20059;-83
2022/11/16 11:09:31;;;;;;;8.63;3.10;;;12.00;99.90;;;;;;4940707;29;20082;-82
2022/11/16 11:15:04;;;;;;;10.98;3.67;;;12.30;99.90;;;;;;4956825;29;20039;-82
2022/11/16 11:17:31;;;;;;;10.43;3.35;;;12.40;99.90;;;;;;4955535;29;20174;-82
2022/11/16 11:20:26;;;;;;;9.40;3.28;;;12.60;99.90;;;;;;4924231;29;20081;-82
2022/11/16 11:22:54;;;;;;;11.57;3.83;;;12.60;99.90;;;;;;4939337;29;20062;-83
2022/11/16 11:25:33;;;;;;;11.50;3.00;;;12.70;99.90;;;;;;4956139;29;20498;-82
2022/11/16 11:28:25;;;;;;;11.18;3.22;;;12.70;99.90;;;;;;4940012;29;20050;-84
2022/11/16 11:31:24;;;;;;;13.93;3.38;;;12.60;99.90;;;;;;4932485;29;20364;-83
2022/11/16 11:34:19;;;;;;;11.30;3.63;;;12.80;99.90;;;;;;4954938;29;20082;-83
2022/11/16 11:37:05;;;;;;;5.97;2.75;;;13.10;99.90;;;;;;4951514;29;20051;-83
2022/11/16 11:39:34;;;;;;;11.63;3.67;;;13.30;99.90;;;;;;4931773;29;20123;-82
2022/11/16 11:42:11;;;;;;;10.00;3.30;;;13.20;99.90;;;;;;4940174;29;20054;-82
2022/11/16 11:44:57;;;;;;;9.63;3.40;;;13.00;99.90;;;;;;4940371;29;20051;-82
2022/11/16 11:47:38;;;;;;;11.07;3.30;;;12.80;99.90;;;;;;4946986;29;20051;-83
2022/11/16 11:50:13;;;;;;;8.05;3.00;;;12.60;99.90;;;;;;4939992;29;20047;-84
2022/11/16 11:53:10;;;;;;;9.13;3.28;;;12.60;99.90;;;;;;4955569;29;20110;-85
2022/11/16 11:55:37;;;;;;;9.80;3.00;;;12.60;99.90;;;;;;4956096;29;20043;-87
2022/11/16 11:58:09;;;;;;;8.15;3.10;;;12.60;99.90;;;;;;4924262;29;20039;-86
2022/11/16 12:00:54;;;;;;;10.07;2.90;;;12.60;99.90;;;;;;4940176;29;20039;-83
2022/11/16 12:03:47;;;;;;;9.38;3.08;;;12.50;99.90;;;;;;4940890;29;20043;-85
2022/11/16 12:06:18;;;;;;;14.63;2.80;;;12.60;99.90;;;;;;4941306;29;20055;-84
2022/11/16 12:09:06;;;;;;;8.95;3.28;;;12.50;99.90;;;;;;4939614;29;20039;-84
2022/11/16 12:12:10;;;;;;;10.02;2.75;;;12.50;99.90;;;;;;4940362;29;20051;-84
2022/11/16 12:15:22;;;;;;;9.75;2.65;;;12.40;99.90;;;;;;4949135;29;20090;-83
2022/11/16 12:18:03;;;;;;;7.18;2.05;;;12.40;99.90;;;;;;4939136;29;20047;-83
2022/11/16 12:20:51;;;;;;;10.40;2.40;;;12.40;99.90;;;;;;4932689;29;20035;-82
2022/11/16 12:23:46;;;;;;;11.02;2.83;;;12.40;99.90;;;;;;4955757;29;20043;-83
2022/11/16 12:26:20;;;;;;;9.80;3.30;;;12.30;99.90;;;;;;4954468;28;20054;-82
2022/11/16 12:29:27;;;;;;;10.75;2.47;;;12.40;99.90;;;;;;4955834;29;20122;-82
2022/11/16 12:32:04;;;;;;;11.20;2.47;;;12.40;99.90;;;;;;4939109;29;20047;-82
2022/11/16 12:34:54;;;;;;;8.80;2.22;;;12.40;99.90;;;;;;4940924;29;20036;-83
2022/11/16 12:37:44;;;;;;;9.93;2.78;;;12.50;99.90;;;;;;4929962;29;20043;-81
2022/11/16 12:40:32;;;;;;;6.85;2.67;;;12.70;99.90;;;;;;4933707;29;20484;-82
2022/11/16 12:43:01;;;;;;;13.70;3.13;;;12.70;99.90;;;;;;4938828;29;20082;-83
2022/11/16 12:45:45;;;;;;;13.88;2.75;;;12.60;99.90;;;;;;4928344;29;20074;-82
2022/11/16 12:48:39;;;;;;;9.68;1.98;;;12.50;99.90;;;;;;4953848;29;20399;-85
2022/11/16 12:51:10;;;;;;;10.23;2.60;;;12.50;99.90;;;;;;4952246;28;20047;-86
2022/11/16 12:53:39;;;;;;;11.23;2.58;;;12.50;99.90;;;;;;4937411;29;20447;-81
2022/11/16 12:56:23;;;;;;;13.18;2.38;;;12.60;99.90;;;;;;4933293;29;20047;-82
2022/11/16 12:59:08;;;;;;;10.38;2.80;;;12.50;99.90;;;;;;4937121;28;20095;-81
2022/11/16 13:02:01;;;;;;;17.15;2.88;;;12.60;99.90;;;;;;4936310;29;20051;-81
2022/11/16 13:04:39;;;;;;;6.38;2.10;;;12.70;99.90;;;;;;4931931;29;20063;-81
2022/11/16 13:07:16;;;;;;;13.32;2.45;;;12.70;99.90;;;;;;4952913;29;20054;-81
2022/11/16 13:09:52;;;;;;;9.93;2.90;;;12.60;99.90;;;;;;4936204;29;20079;-81
2022/11/16 13:12:22;;;;;;;10.65;2.58;;;12.60;99.90;;;;;;4938930;29;20039;-83
2022/11/16 13:14:54;;;;;;;10.02;2.67;;;12.60;99.90;;;;;;4945006;29;20039;-81
2022/11/16 13:17:30;;;;;;;10.70;3.03;;;12.60;99.90;;;;;;4952637;29;20043;-82
2022/11/16 13:20:18;;;;;;;8.32;2.38;;;12.70;99.90;;;;;;4936096;28;20067;-82
2022/11/16 13:23:00;;;;;;;9.60;2.58;;;12.80;99.90;;;;;;4938457;29;20047;-83
2022/11/16 13:25:32;;;;;;;10.05;2.10;;;12.90;99.90;;;;;;4936963;29;20042;-82
2022/11/16 13:28:36;;;;;;;13.68;2.83;;;12.80;99.90;;;;;;4936332;29;20075;-82
2022/11/16 13:31:16;;;;;;;7.93;2.20;;;12.60;99.90;;;;;;4928193;29;20054;-82
2022/11/16 13:33:48;;;;;;;10.80;2.30;;;12.60;99.90;;;;;;4929099;29;20058;-82
2022/11/16 13:36:36;;;;;;;9.75;2.35;;;12.50;99.90;;;;;;4952095;29;20043;-83
2022/11/16 13:39:04;;;;;;;9.13;2.60;;;12.40;99.90;;;;;;4953513;29;20029;-82
2022/11/16 13:41:34;;;;;;;10.98;2.08;;;12.50;99.90;;;;;;4938193;29;20431;-82
2022/11/16 13:44:01;;;;;;;7.70;2.17;;;12.50;99.90;;;;;;4937398;29;20039;-82